Time;durP1;ratioP1;P1;durP2;ratioP2;P2;SDS_P1;SDS_P2;PMS_P1;PMS_P2;Temp;Humidity;BMP_temperature;BMP_pressure;BME280_temperature;BME280_humidity;BME280_pressure;Samples;Min_cycle;Max_cycle;Signal;HPM_P1;HPM_P2
2022/01/14 00:01:50;;;;;;;8.43;3.80;;;0.10;99.90;;;;;;5074536;28;20185;-53
2022/01/14 00:04:16;;;;;;;8.87;3.80;;;0.10;99.90;;;;;;5085777;28;20193;-52
2022/01/14 00:06:42;;;;;;;9.57;4.07;;;0.00;99.90;;;;;;5094764;28;20188;-52
2022/01/14 00:09:10;;;;;;;8.87;4.00;;;0.00;99.90;;;;;;5095045;28;20182;-49
2022/01/14 00:11:45;;;;;;;11.60;4.40;;;-0.10;99.90;;;;;;5094649;28;20194;-50
2022/01/14 00:16:40;;;;;;;10.73;4.27;;;-0.20;99.90;;;;;;5094518;28;20175;-54
2022/01/14 00:19:06;;;;;;;9.97;4.57;;;-0.30;99.90;;;;;;5095054;28;20644;-52
2022/01/14 00:21:34;;;;;;;10.97;4.23;;;-0.40;99.90;;;;;;5094531;28;20281;-53
2022/01/14 00:32:19;;;;;;;11.40;5.43;;;-0.40;99.90;;;;;;5074116;28;20176;-54
2022/01/14 00:34:45;;;;;;;9.57;4.70;;;-0.50;99.90;;;;;;5074052;28;20181;-52
2022/01/14 00:37:13;;;;;;;12.20;5.00;;;-0.60;99.90;;;;;;5073902;28;20619;-53
2022/01/14 00:39:39;;;;;;;9.97;4.83;;;-0.70;99.90;;;;;;5073823;28;20171;-53
2022/01/14 00:42:05;;;;;;;12.10;4.63;;;-0.80;99.90;;;;;;5072526;28;20282;-57
2022/01/14 00:44:30;;;;;;;10.00;4.70;;;-0.90;99.90;;;;;;5073847;28;20201;-59
2022/01/14 00:46:56;;;;;;;10.70;4.67;;;-0.90;99.90;;;;;;5074120;28;20248;-54
2022/01/14 00:49:22;;;;;;;9.83;4.83;;;-1.00;99.90;;;;;;5073970;28;20303;-54
2022/01/14 00:51:48;;;;;;;10.17;4.40;;;-0.90;99.90;;;;;;5073836;28;20219;-55
2022/01/14 00:54:15;;;;;;;9.17;4.03;;;-0.80;99.90;;;;;;5073982;28;20201;-52
2022/01/14 00:59:16;;;;;;;10.17;4.60;;;-1.10;99.90;;;;;;5073811;28;20181;-55
2022/01/14 01:01:54;;;;;;;8.93;4.20;;;-1.20;99.90;;;;;;5073485;28;20192;-55
2022/01/14 01:04:33;;;;;;;8.47;4.17;;;-1.30;99.90;;;;;;5085554;28;20179;-56
2022/01/14 01:07:02;;;;;;;9.33;3.93;;;-1.40;99.90;;;;;;5093852;28;20168;-54
2022/01/14 01:09:29;;;;;;;7.97;3.70;;;-1.50;99.90;;;;;;5094131;28;20684;-53
2022/01/14 01:17:27;;;;;;;10.90;4.13;;;-1.00;99.90;;;;;;5071186;28;20204;-53
2022/01/14 01:19:52;;;;;;;9.43;4.13;;;-0.90;99.90;;;;;;5093645;28;20176;-54
2022/01/14 01:22:18;;;;;;;7.63;4.30;;;-1.00;99.90;;;;;;5093571;28;20228;-53
2022/01/14 01:24:44;;;;;;;10.67;4.93;;;-1.10;99.90;;;;;;5093463;28;20235;-55
2022/01/14 01:27:09;;;;;;;8.47;4.50;;;-1.20;99.90;;;;;;5093553;28;20255;-54
2022/01/14 01:32:02;;;;;;;11.13;4.73;;;-1.50;99.90;;;;;;5072949;28;20184;-54
2022/01/14 01:34:28;;;;;;;15.37;5.00;;;-1.40;99.90;;;;;;5073040;28;20178;-52
2022/01/14 01:36:56;;;;;;;10.30;4.67;;;-1.40;99.90;;;;;;5054536;28;20190;-53
2022/01/14 01:39:27;;;;;;;11.77;5.03;;;-1.50;99.90;;;;;;5073153;28;20268;-59
2022/01/14 01:41:56;;;;;;;11.93;5.03;;;-1.50;99.90;;;;;;5072724;28;20192;-55
2022/01/14 01:44:23;;;;;;;8.80;4.30;;;-1.50;99.90;;;;;;5073047;28;20193;-54
2022/01/14 01:46:50;;;;;;;9.10;4.33;;;-1.60;99.90;;;;;;5072471;28;20272;-54
2022/01/14 01:49:18;;;;;;;11.67;4.60;;;-1.70;99.90;;;;;;5072338;28;20236;-55
2022/01/14 01:51:46;;;;;;;9.20;4.87;;;-1.80;99.90;;;;;;5072383;28;20182;-54
2022/01/14 01:54:13;;;;;;;9.23;4.40;;;-1.80;99.90;;;;;;5072466;28;20205;-52
2022/01/14 01:56:39;;;;;;;8.10;3.70;;;-1.90;99.90;;;;;;5072413;28;20185;-55
2022/01/14 01:59:05;;;;;;;9.80;5.53;;;-2.00;99.90;;;;;;5054952;28;20205;-55
2022/01/14 02:01:32;;;;;;;11.60;4.87;;;-2.10;99.90;;;;;;5072625;28;20331;-53
2022/01/14 02:03:58;;;;;;;10.93;4.87;;;-2.10;99.90;;;;;;5080860;28;20187;-54
2022/01/14 02:06:25;;;;;;;10.43;5.27;;;-2.20;99.90;;;;;;5092708;28;20172;-54
2022/01/14 02:08:51;;;;;;;9.33;4.50;;;-2.20;99.90;;;;;;5092490;28;20184;-54
2022/01/14 02:11:17;;;;;;;11.70;5.23;;;-2.20;99.90;;;;;;5092294;28;20180;-54
2022/01/14 02:13:44;;;;;;;10.47;4.97;;;-2.20;99.90;;;;;;5074221;28;20218;-56
2022/01/14 02:16:18;;;;;;;11.40;4.77;;;-2.20;99.90;;;;;;5092714;28;20181;-52
2022/01/14 02:19:00;;;;;;;10.17;4.33;;;-2.20;99.90;;;;;;5092436;28;20534;-53
2022/01/14 02:26:52;;;;;;;12.43;5.33;;;-2.30;99.90;;;;;;5092134;28;20222;-53
2022/01/14 02:29:19;;;;;;;11.67;5.57;;;-2.30;99.90;;;;;;5081046;28;20621;-54
2022/01/14 02:31:45;;;;;;;10.37;5.83;;;-2.30;99.90;;;;;;5071749;28;20344;-54
2022/01/14 02:34:12;;;;;;;11.70;5.40;;;-2.40;99.90;;;;;;5072110;28;20288;-57
2022/01/14 02:36:43;;;;;;;13.83;5.90;;;-2.40;99.90;;;;;;5071606;28;20595;-57
2022/01/14 02:39:13;;;;;;;10.83;5.37;;;-2.50;99.90;;;;;;5072326;28;20272;-49
2022/01/14 02:41:41;;;;;;;12.80;5.90;;;-2.60;99.90;;;;;;5071872;28;20170;-54
2022/01/14 02:44:17;;;;;;;14.43;5.60;;;-2.70;99.90;;;;;;5072115;28;20237;-55
2022/01/14 02:46:51;;;;;;;12.97;6.33;;;-2.80;99.90;;;;;;5071826;28;20635;-52
2022/01/14 02:49:17;;;;;;;17.20;5.97;;;-2.90;99.90;;;;;;5071877;28;20264;-51
2022/01/14 02:51:43;;;;;;;11.70;5.63;;;-2.90;99.90;;;;;;5071497;28;20248;-54
2022/01/14 02:54:15;;;;;;;16.60;6.03;;;-3.00;99.90;;;;;;5071996;28;20213;-54
2022/01/14 02:56:48;;;;;;;12.47;6.20;;;-3.00;99.90;;;;;;5071745;28;20169;-53
2022/01/14 02:59:16;;;;;;;11.10;5.37;;;-3.00;99.90;;;;;;5072085;28;20169;-55
2022/01/14 03:01:44;;;;;;;16.43;6.77;;;-3.10;99.90;;;;;;5071367;28;20619;-55
2022/01/14 03:04:13;;;;;;;16.80;7.57;;;-3.00;99.90;;;;;;5082116;28;20184;-57
2022/01/14 03:06:40;;;;;;;14.27;7.10;;;-3.10;99.90;;;;;;5095640;28;20175;-55
2022/01/14 03:09:05;;;;;;;17.70;6.87;;;-3.10;99.90;;;;;;5096056;28;20661;-55
2022/01/14 03:11:34;;;;;;;15.80;7.40;;;-3.20;99.90;;;;;;5095931;28;20290;-54
2022/01/14 03:14:01;;;;;;;14.73;6.77;;;-2.70;99.90;;;;;;5095625;28;20215;-58
2022/01/14 03:16:27;;;;;;;13.83;7.13;;;-2.50;99.90;;;;;;5095952;28;20177;-55
2022/01/14 03:19:04;;;;;;;12.37;5.93;;;-2.40;99.90;;;;;;5095100;28;20223;-53
2022/01/14 03:21:36;;;;;;;14.10;6.23;;;-2.50;99.90;;;;;;5095872;28;20252;-51
2022/01/14 03:24:14;;;;;;;13.10;6.50;;;-2.70;99.90;;;;;;5095501;28;20228;-52
2022/01/14 03:26:41;;;;;;;13.90;6.67;;;-2.70;99.90;;;;;;5095516;28;20592;-52
2022/01/14 03:29:07;;;;;;;14.57;7.07;;;-2.80;99.90;;;;;;5086235;28;20184;-52
2022/01/14 03:31:32;;;;;;;13.57;6.10;;;-2.90;99.90;;;;;;5075523;28;20184;-53
2022/01/14 03:33:58;;;;;;;16.47;7.13;;;-2.90;99.90;;;;;;5056906;28;20209;-53
2022/01/14 03:36:25;;;;;;;18.23;7.60;;;-3.00;99.90;;;;;;5075417;28;20183;-55
2022/01/14 03:38:51;;;;;;;16.63;8.30;;;-3.10;99.90;;;;;;5075100;28;20190;-54
2022/01/14 03:41:16;;;;;;;15.80;7.40;;;-3.20;99.90;;;;;;5075178;28;20265;-57
2022/01/14 03:43:42;;;;;;;13.73;7.33;;;-3.30;99.90;;;;;;5074954;28;20193;-55
2022/01/14 03:46:09;;;;;;;13.47;7.13;;;-3.30;99.90;;;;;;5075180;28;20181;-53
2022/01/14 03:48:34;;;;;;;14.30;7.17;;;-3.30;99.90;;;;;;5074701;28;20275;-55
2022/01/14 03:51:00;;;;;;;15.13;7.20;;;-3.30;99.90;;;;;;5074453;28;20174;-53
2022/01/14 03:53:26;;;;;;;15.37;6.83;;;-3.30;99.90;;;;;;5074991;28;20205;-54
2022/01/14 03:55:52;;;;;;;16.40;7.40;;;-3.30;99.90;;;;;;5074514;28;20540;-55
2022/01/14 03:58:18;;;;;;;13.73;6.83;;;-3.20;99.90;;;;;;5074911;28;20174;-54
2022/01/14 04:00:44;;;;;;;19.27;8.00;;;-3.00;99.90;;;;;;5074396;28;20695;-54
2022/01/14 04:03:10;;;;;;;14.57;7.53;;;-2.90;99.90;;;;;;5076371;28;20233;-53
2022/01/14 04:05:35;;;;;;;17.70;7.47;;;-2.70;99.90;;;;;;5094801;28;20184;-53
2022/01/14 04:08:01;;;;;;;15.20;7.00;;;-2.60;99.90;;;;;;5094435;28;20541;-53
2022/01/14 04:10:27;;;;;;;15.57;7.23;;;-2.50;99.90;;;;;;5094862;28;20594;-53
2022/01/14 04:13:01;;;;;;;17.63;8.17;;;-2.50;99.90;;;;;;5094250;28;20212;-52
2022/01/14 04:15:37;;;;;;;18.10;8.23;;;-2.40;99.90;;;;;;5094800;28;20168;-54
2022/01/14 04:18:08;;;;;;;18.40;8.40;;;-2.40;99.90;;;;;;5094705;28;20184;-56
2022/01/14 04:20:36;;;;;;;19.07;8.40;;;-2.40;99.90;;;;;;5094642;28;20176;-52
2022/01/14 04:23:02;;;;;;;27.63;10.13;;;-2.30;99.90;;;;;;5094278;28;20191;-54
2022/01/14 04:25:28;;;;;;;18.30;8.23;;;-2.20;99.90;;;;;;5094323;28;20660;-56
2022/01/14 04:27:54;;;;;;;25.03;9.30;;;-2.20;99.90;;;;;;5094247;28;20600;-54
2022/01/14 04:30:20;;;;;;;19.23;9.13;;;-2.20;99.90;;;;;;5074796;28;20192;-55
2022/01/14 04:32:46;;;;;;;20.23;9.50;;;-2.20;99.90;;;;;;5073860;28;20205;-56
2022/01/14 04:35:12;;;;;;;18.90;8.90;;;-2.00;99.90;;;;;;5073934;28;20196;-53
2022/01/14 04:37:38;;;;;;;19.50;8.17;;;-2.00;99.90;;;;;;5074187;28;20264;-54
2022/01/14 04:40:05;;;;;;;16.47;7.73;;;-1.90;99.90;;;;;;5073695;28;20265;-52
2022/01/14 04:42:31;;;;;;;19.03;7.93;;;-1.80;99.90;;;;;;5073949;28;20492;-52
2022/01/14 04:44:57;;;;;;;18.47;8.00;;;-1.60;99.90;;;;;;5073640;28;20594;-55
2022/01/14 04:47:44;;;;;;;15.80;6.97;;;-1.50;99.90;;;;;;5073685;28;20193;-51
2022/01/14 04:50:14;;;;;;;14.43;7.00;;;-1.40;99.90;;;;;;5073966;28;20243;-55
2022/01/14 04:52:41;;;;;;;15.40;7.10;;;-1.30;99.90;;;;;;5055559;28;20679;-53
2022/01/14 04:55:09;;;;;;;16.50;8.23;;;-1.20;99.90;;;;;;5073254;28;20196;-55
2022/01/14 04:57:34;;;;;;;14.53;7.30;;;-1.10;99.90;;;;;;5073855;28;20260;-57
2022/01/14 05:00:01;;;;;;;15.27;7.13;;;-1.00;99.90;;;;;;5072846;28;20203;-51
2022/01/14 05:02:27;;;;;;;14.27;6.93;;;-1.00;99.90;;;;;;5072956;28;20182;-51
2022/01/14 05:04:56;;;;;;;15.97;7.17;;;-0.90;99.90;;;;;;5089335;28;20241;-54
2022/01/14 05:07:25;;;;;;;19.27;7.90;;;-0.80;99.90;;;;;;5093449;28;20174;-55
2022/01/14 05:12:37;;;;;;;14.87;7.27;;;-0.70;99.90;;;;;;5093290;28;20245;-53
2022/01/14 05:15:04;;;;;;;17.10;7.83;;;-0.60;99.90;;;;;;5093090;28;20176;-54
2022/01/14 05:20:06;;;;;;;15.07;7.10;;;-0.60;99.90;;;;;;5055115;22;20270;-57
2022/01/14 05:22:32;;;;;;;15.73;7.13;;;-0.60;99.90;;;;;;4992621;28;20193;-58
2022/01/14 05:24:57;;;;;;;14.73;7.93;;;-0.70;99.90;;;;;;4993205;28;20189;-57
2022/01/14 05:27:23;;;;;;;15.97;7.67;;;-0.70;99.90;;;;;;4975357;28;20565;-56
2022/01/14 05:29:49;;;;;;;15.60;7.47;;;-0.70;99.90;;;;;;4986811;28;20577;-58
2022/01/14 05:32:15;;;;;;;24.83;12.43;;;-0.90;99.90;;;;;;4992995;28;20583;-56
2022/01/14 05:34:45;;;;;;;27.17;11.97;;;-1.10;99.90;;;;;;4992635;28;20711;-57
2022/01/14 05:37:12;;;;;;;31.53;12.40;;;-1.50;99.90;;;;;;4992317;28;20180;-58
2022/01/14 05:39:39;;;;;;;32.07;12.83;;;-2.00;99.90;;;;;;4992656;28;20180;-59
2022/01/14 05:42:05;;;;;;;37.67;16.73;;;-2.30;99.90;;;;;;4992800;28;20183;-58
2022/01/14 05:44:32;;;;;;;34.60;14.87;;;-2.60;99.90;;;;;;4992035;28;20231;-57
2022/01/14 05:46:59;;;;;;;28.97;13.33;;;-2.80;99.90;;;;;;4992656;28;20184;-57
2022/01/14 05:49:26;;;;;;;29.77;13.37;;;-2.90;99.90;;;;;;4992945;28;20218;-57
2022/01/14 05:51:52;;;;;;;29.30;12.33;;;-3.00;99.90;;;;;;4974455;28;20203;-60
2022/01/14 05:54:19;;;;;;;25.53;12.07;;;-3.00;99.90;;;;;;4975059;28;20234;-56
2022/01/14 05:56:46;;;;;;;28.13;12.17;;;-3.00;99.90;;;;;;4974190;28;20175;-56
2022/01/14 05:59:12;;;;;;;28.57;12.63;;;-3.00;99.90;;;;;;4992075;28;20593;-57
2022/01/14 06:01:39;;;;;;;25.20;11.70;;;-3.10;99.90;;;;;;4990945;28;20277;-59
2022/01/14 06:04:05;;;;;;;29.60;12.93;;;-3.00;99.90;;;;;;4983982;28;20377;-63
2022/01/14 06:06:33;;;;;;;31.43;12.93;;;-3.00;99.90;;;;;;4993928;28;20190;-59
2022/01/14 06:08:59;;;;;;;26.97;12.07;;;-2.90;99.90;;;;;;5011858;28;20197;-61
2022/01/14 06:11:25;;;;;;;37.10;17.60;;;-3.00;99.90;;;;;;5010697;28;20385;-60
2022/01/14 06:13:51;;;;;;;33.13;14.43;;;-3.00;99.90;;;;;;5011976;28;20243;-61
2022/01/14 06:16:17;;;;;;;33.47;16.00;;;-3.00;99.90;;;;;;5012194;28;20265;-63
2022/01/14 06:18:43;;;;;;;33.37;14.73;;;-2.90;99.90;;;;;;5011472;28;20226;-63
2022/01/14 06:21:09;;;;;;;32.90;15.37;;;-2.80;99.90;;;;;;5011862;28;20234;-63
2022/01/14 06:23:35;;;;;;;36.60;17.00;;;-2.70;99.90;;;;;;4993569;28;20191;-59
2022/01/14 06:26:01;;;;;;;39.27;14.80;;;-2.60;99.90;;;;;;5011419;28;20278;-60
2022/01/14 06:28:27;;;;;;;30.53;13.40;;;-2.50;99.90;;;;;;5006052;28;20192;-60
2022/01/14 06:30:53;;;;;;;33.63;14.57;;;-2.40;99.90;;;;;;4972913;28;20242;-60
2022/01/14 06:33:19;;;;;;;38.53;17.43;;;-2.40;99.90;;;;;;4990450;28;20278;-61
2022/01/14 06:35:45;;;;;;;31.97;15.37;;;-2.30;99.90;;;;;;4991809;28;20187;-59
2022/01/14 06:38:11;;;;;;;31.77;14.17;;;-2.30;99.90;;;;;;4991885;28;20591;-60
2022/01/14 06:40:37;;;;;;;34.23;15.87;;;-2.30;99.90;;;;;;4991993;28;20180;-61
2022/01/14 06:43:05;;;;;;;30.07;14.83;;;-2.20;99.90;;;;;;4991668;28;20274;-60
2022/01/14 06:45:32;;;;;;;35.27;15.67;;;-2.20;99.90;;;;;;4991386;28;20164;-61
2022/01/14 06:47:58;;;;;;;29.87;14.07;;;-2.10;99.90;;;;;;4990090;28;20192;-61
2022/01/14 06:50:24;;;;;;;38.73;17.27;;;-2.00;99.90;;;;;;4989899;28;20188;-62
2022/01/14 06:52:50;;;;;;;51.77;19.07;;;-1.90;99.90;;;;;;4989728;28;20695;-60
2022/01/14 06:55:16;;;;;;;67.40;21.70;;;-1.80;99.90;;;;;;4992164;28;20219;-60
2022/01/14 06:57:42;;;;;;;51.83;20.63;;;-1.70;99.90;;;;;;4990632;28;20246;-61
2022/01/14 07:00:11;;;;;;;46.17;19.20;;;-1.60;99.90;;;;;;5000333;28;20191;-60
2022/01/14 07:02:37;;;;;;;38.73;16.33;;;-1.50;99.90;;;;;;5010235;28;20221;-60
2022/01/14 07:05:04;;;;;;;50.27;19.03;;;-1.30;99.90;;;;;;4988525;28;20715;-60
2022/01/14 07:07:31;;;;;;;48.50;18.03;;;-1.10;99.90;;;;;;5002496;28;20283;-61
2022/01/14 07:09:57;;;;;;;49.17;19.43;;;-1.00;99.90;;;;;;5002170;28;20184;-61
2022/01/14 07:12:34;;;;;;;42.87;17.57;;;-0.90;99.90;;;;;;4999668;28;20245;-60
2022/01/14 07:15:00;;;;;;;40.47;17.50;;;-0.50;99.90;;;;;;5004927;28;20641;-62
2022/01/14 07:17:27;;;;;;;41.33;16.30;;;-0.20;99.90;;;;;;5009250;28;20196;-60
2022/01/14 07:19:57;;;;;;;38.27;17.23;;;-0.10;99.90;;;;;;5000604;28;20255;-60
2022/01/14 07:22:23;;;;;;;54.50;21.00;;;-0.10;99.90;;;;;;5009618;28;20205;-61
2022/01/14 07:24:49;;;;;;;42.53;19.30;;;-0.10;99.90;;;;;;5000160;28;20204;-60
2022/01/14 07:27:15;;;;;;;52.80;23.37;;;0.00;99.90;;;;;;5006428;28;20224;-60
2022/01/14 07:29:41;;;;;;;33.67;16.43;;;0.00;99.90;;;;;;5000816;28;20279;-61
2022/01/14 07:32:07;;;;;;;37.77;13.03;;;0.00;99.90;;;;;;5005463;28;20195;-60
2022/01/14 07:34:34;;;;;;;26.03;11.03;;;0.10;99.90;;;;;;5003247;28;20219;-60
2022/01/14 07:36:59;;;;;;;25.23;11.27;;;0.20;99.90;;;;;;5004621;28;20622;-60
2022/01/14 07:39:25;;;;;;;25.37;11.03;;;0.30;99.90;;;;;;5004443;28;20205;-61
2022/01/14 07:41:51;;;;;;;26.30;12.47;;;0.40;99.90;;;;;;5003174;28;20307;-62
2022/01/14 07:44:18;;;;;;;26.90;12.30;;;0.40;99.90;;;;;;5004853;28;20652;-62
2022/01/14 07:46:44;;;;;;;22.17;11.70;;;0.50;99.90;;;;;;5002020;28;20224;-61
2022/01/14 07:49:10;;;;;;;20.17;9.53;;;0.60;99.90;;;;;;5006009;28;20190;-60
2022/01/14 07:51:36;;;;;;;20.40;9.90;;;0.70;99.90;;;;;;5003364;28;20204;-64
2022/01/14 07:54:05;;;;;;;27.17;11.90;;;0.70;99.90;;;;;;4992130;28;20238;-62
2022/01/14 07:56:35;;;;;;;25.40;11.27;;;0.80;99.90;;;;;;5003560;28;20190;-61
2022/01/14 07:59:01;;;;;;;26.33;13.13;;;0.80;99.90;;;;;;5009854;28;20191;-61
2022/01/14 08:01:27;;;;;;;22.00;10.23;;;0.90;99.90;;;;;;5003004;28;20609;-64
2022/01/14 08:03:53;;;;;;;21.70;11.00;;;1.00;99.90;;;;;;4993103;28;20683;-63
2022/01/14 08:06:22;;;;;;;19.67;10.13;;;1.00;99.90;;;;;;5001986;28;20282;-63
2022/01/14 08:08:47;;;;;;;22.13;11.03;;;1.00;99.90;;;;;;4994447;28;20610;-63
2022/01/14 08:11:13;;;;;;;23.87;11.37;;;1.10;99.90;;;;;;4982243;28;20210;-63
2022/01/14 08:13:39;;;;;;;26.10;13.63;;;1.10;99.90;;;;;;4994199;28;20214;-63
2022/01/14 08:16:05;;;;;;;25.90;12.50;;;1.20;99.90;;;;;;4996044;28;20187;-63
2022/01/14 08:18:31;;;;;;;28.87;13.37;;;1.30;99.90;;;;;;4979329;28;20581;-64
2022/01/14 08:20:56;;;;;;;35.23;15.60;;;1.40;99.90;;;;;;4999573;28;20187;-64
2022/01/14 08:23:22;;;;;;;37.67;17.93;;;1.50;99.90;;;;;;5013648;28;20545;-64
2022/01/14 08:25:53;;;;;;;37.57;16.37;;;1.70;99.90;;;;;;4999509;28;20599;-64
2022/01/14 08:28:19;;;;;;;44.77;19.60;;;1.70;99.90;;;;;;4992214;28;20293;-63
2022/01/14 08:30:45;;;;;;;45.20;18.33;;;1.90;99.90;;;;;;4979259;28;20198;-64
2022/01/14 08:33:12;;;;;;;48.23;21.57;;;2.40;99.90;;;;;;4995338;28;20579;-65
2022/01/14 08:35:39;;;;;;;49.73;20.53;;;2.60;99.90;;;;;;4998888;28;20275;-71
2022/01/14 08:38:05;;;;;;;34.43;16.73;;;2.70;99.90;;;;;;5012899;28;20187;-62
2022/01/14 08:40:31;;;;;;;34.70;16.50;;;2.60;99.90;;;;;;4992967;28;20200;-67
2022/01/14 08:42:56;;;;;;;32.77;13.63;;;2.50;99.90;;;;;;4994156;28;20199;-64
2022/01/14 08:45:23;;;;;;;27.03;13.37;;;2.40;99.90;;;;;;4993730;28;20211;-64
2022/01/14 08:47:54;;;;;;;29.17;12.93;;;2.40;99.90;;;;;;4993150;28;20188;-65
2022/01/14 08:50:31;;;;;;;25.77;11.87;;;2.50;99.90;;;;;;4993404;28;20165;-64
2022/01/14 08:52:59;;;;;;;21.93;10.47;;;3.30;99.90;;;;;;4992601;28;20208;-65
2022/01/14 08:55:25;;;;;;;26.43;11.73;;;3.80;99.90;;;;;;4993624;28;20243;-64
2022/01/14 08:57:52;;;;;;;24.17;9.80;;;3.80;99.90;;;;;;4975409;28;20192;-64
2022/01/14 09:00:20;;;;;;;22.87;10.83;;;3.40;99.90;;;;;;4993331;28;20191;-64
2022/01/14 09:02:46;;;;;;;19.67;8.90;;;3.10;99.90;;;;;;4990101;28;20188;-66
2022/01/14 09:05:12;;;;;;;21.70;10.20;;;2.90;99.90;;;;;;5009635;28;20747;-64
2022/01/14 09:07:38;;;;;;;17.43;8.23;;;2.80;99.90;;;;;;4977048;28;20199;-65
2022/01/14 09:10:06;;;;;;;17.83;9.37;;;2.70;99.90;;;;;;5010852;28;20183;-64
2022/01/14 09:12:32;;;;;;;23.63;11.47;;;2.70;99.90;;;;;;5010574;28;20274;-64
2022/01/14 09:15:00;;;;;;;16.20;7.97;;;2.70;99.90;;;;;;5010267;28;20191;-64
2022/01/14 09:17:25;;;;;;;20.97;10.07;;;2.70;99.90;;;;;;5012406;28;20179;-65
2022/01/14 09:19:51;;;;;;;21.33;10.13;;;2.80;99.90;;;;;;5011737;28;20595;-64
2022/01/14 09:22:18;;;;;;;18.87;10.07;;;2.80;99.90;;;;;;5012640;28;20274;-64
2022/01/14 09:24:46;;;;;;;24.80;11.90;;;2.90;99.90;;;;;;5012633;28;20206;-65
2022/01/14 09:27:13;;;;;;;27.03;12.17;;;2.90;99.90;;;;;;4995138;28;20187;-65
2022/01/14 09:29:39;;;;;;;21.10;10.67;;;2.90;99.90;;;;;;4999508;28;20267;-65
2022/01/14 09:32:05;;;;;;;30.30;14.33;;;2.90;99.90;;;;;;4993186;28;20180;-64
2022/01/14 09:34:33;;;;;;;23.37;12.00;;;3.00;99.90;;;;;;4992957;28;20311;-64
2022/01/14 09:36:58;;;;;;;26.50;12.80;;;3.00;99.90;;;;;;4992869;28;20207;-65
2022/01/14 09:39:24;;;;;;;21.07;11.67;;;3.10;99.90;;;;;;4992519;28;20219;-64
2022/01/14 09:41:51;;;;;;;27.30;12.37;;;3.10;99.90;;;;;;4991763;28;20537;-65
2022/01/14 09:44:18;;;;;;;27.00;12.43;;;3.10;99.90;;;;;;4992715;28;20188;-64
2022/01/14 09:46:47;;;;;;;29.33;13.03;;;3.10;99.90;;;;;;4974229;28;20608;-64
2022/01/14 09:49:14;;;;;;;22.53;11.57;;;3.20;99.90;;;;;;4992530;28;20581;-63
2022/01/14 09:51:40;;;;;;;20.80;10.50;;;3.20;99.90;;;;;;4992612;28;20215;-65
2022/01/14 09:54:08;;;;;;;27.83;12.63;;;3.20;99.90;;;;;;4992606;28;20211;-65
2022/01/14 09:56:33;;;;;;;26.37;11.20;;;3.30;99.90;;;;;;4991898;28;20177;-64
2022/01/14 09:59:02;;;;;;;24.83;12.87;;;3.40;99.90;;;;;;4991418;28;20180;-64
2022/01/14 10:01:28;;;;;;;25.27;12.37;;;3.40;99.90;;;;;;4992392;28;20294;-64
2022/01/14 10:03:57;;;;;;;24.97;11.43;;;3.40;99.90;;;;;;4981972;28;20635;-65
2022/01/14 10:06:41;;;;;;;25.03;11.67;;;3.40;99.90;;;;;;5011432;28;20187;-63
2022/01/14 10:09:09;;;;;;;26.27;11.67;;;3.50;99.90;;;;;;4993092;28;20198;-65
2022/01/14 10:11:37;;;;;;;25.77;11.73;;;3.60;99.90;;;;;;5011247;28;20484;-63
2022/01/14 10:14:10;;;;;;;28.30;11.57;;;3.60;99.90;;;;;;5010612;28;21005;-63
2022/01/14 10:16:35;;;;;;;23.77;11.47;;;3.70;99.90;;;;;;5011352;28;20205;-64
2022/01/14 10:19:02;;;;;;;24.93;12.03;;;3.70;99.90;;;;;;4993011;28;20741;-64
2022/01/14 10:21:32;;;;;;;25.17;10.73;;;3.80;99.90;;;;;;5011920;28;20181;-64
2022/01/14 10:23:59;;;;;;;21.03;9.53;;;4.00;99.90;;;;;;4993481;28;20299;-63
2022/01/14 10:26:27;;;;;;;17.53;9.33;;;4.00;99.90;;;;;;5011289;28;20197;-64
2022/01/14 10:29:03;;;;;;;18.93;9.37;;;4.10;99.90;;;;;;5010584;28;20184;-65
2022/01/14 10:31:34;;;;;;;16.73;8.90;;;4.20;99.90;;;;;;5011394;28;20156;-65
2022/01/14 10:34:14;;;;;;;18.13;9.13;;;4.20;99.90;;;;;;4992722;28;20230;-63
2022/01/14 10:36:44;;;;;;;14.40;7.70;;;4.30;99.90;;;;;;5011001;28;20172;-64
2022/01/14 10:39:22;;;;;;;21.10;8.80;;;4.20;99.90;;;;;;5011101;28;20188;-63
2022/01/14 10:41:48;;;;;;;18.50;9.33;;;4.20;99.90;;;;;;4992936;28;20185;-65
2022/01/14 10:44:24;;;;;;;19.10;10.33;;;4.20;99.90;;;;;;4993627;28;20280;-65
2022/01/14 10:47:08;;;;;;;25.77;10.93;;;4.10;99.90;;;;;;5010791;28;20525;-64
2022/01/14 10:49:34;;;;;;;23.53;10.77;;;4.20;99.90;;;;;;5011268;28;20239;-63
2022/01/14 10:52:18;;;;;;;28.83;10.97;;;4.30;99.90;;;;;;4976214;28;20185;-65
2022/01/14 10:54:55;;;;;;;24.07;10.47;;;4.30;99.90;;;;;;5011032;28;20207;-63
2022/01/14 10:57:29;;;;;;;21.07;10.17;;;4.30;99.90;;;;;;4993617;28;20176;-64
2022/01/14 11:00:14;;;;;;;30.60;11.80;;;4.30;99.90;;;;;;4992762;28;20197;-65
2022/01/14 11:02:45;;;;;;;22.27;10.83;;;4.30;99.90;;;;;;5010030;28;20195;-63
2022/01/14 11:05:13;;;;;;;24.80;10.93;;;4.40;99.90;;;;;;4992128;28;20181;-64
2022/01/14 11:07:40;;;;;;;22.37;10.47;;;4.40;99.90;;;;;;4973556;28;20194;-63
2022/01/14 11:10:16;;;;;;;25.50;11.83;;;4.50;99.90;;;;;;4973432;28;20195;-64
2022/01/14 11:12:42;;;;;;;23.60;12.80;;;4.50;99.90;;;;;;4991189;28;20211;-64
2022/01/14 11:15:10;;;;;;;23.27;12.60;;;4.60;99.90;;;;;;4972985;28;20191;-67
2022/01/14 11:17:38;;;;;;;24.30;12.03;;;4.60;99.90;;;;;;4990458;28;20211;-64
2022/01/14 11:20:09;;;;;;;34.67;12.83;;;4.60;99.90;;;;;;4972696;28;20564;-66
2022/01/14 11:25:19;;;;;;;23.30;11.20;;;4.70;99.90;;;;;;4991216;28;20177;-68
2022/01/14 11:27:56;;;;;;;28.53;12.60;;;4.70;99.90;;;;;;4976905;28;20253;-64
2022/01/14 11:30:40;;;;;;;24.47;10.43;;;4.70;99.90;;;;;;5013671;28;20591;-65
2022/01/14 11:33:08;;;;;;;26.10;10.80;;;4.80;99.90;;;;;;5013572;28;20240;-66
2022/01/14 11:35:37;;;;;;;26.90;11.17;;;4.80;99.90;;;;;;4980654;28;20190;-66
2022/01/14 11:38:16;;;;;;;24.37;10.87;;;4.70;99.90;;;;;;5013252;28;20193;-65
2022/01/14 11:40:49;;;;;;;26.27;11.57;;;4.70;99.90;;;;;;5014117;28;20231;-65
2022/01/14 11:43:41;;;;;;;27.07;11.27;;;4.70;99.90;;;;;;5013578;28;20595;-68
2022/01/14 11:46:10;;;;;;;24.13;11.23;;;4.70;99.90;;;;;;5013128;28;20169;-65
2022/01/14 11:48:41;;;;;;;22.60;11.57;;;4.80;99.90;;;;;;5013776;28;20217;-66
2022/01/14 11:51:09;;;;;;;23.80;10.80;;;4.80;99.90;;;;;;5013484;28;20568;-65
2022/01/14 11:53:41;;;;;;;27.30;12.47;;;4.90;99.90;;;;;;5013312;28;20529;-63
2022/01/14 11:56:27;;;;;;;47.23;13.33;;;5.00;99.90;;;;;;5013125;28;20183;-62
2022/01/14 11:58:53;;;;;;;62.83;13.87;;;5.10;99.90;;;;;;5013579;28;20225;-65
2022/01/14 12:01:34;;;;;;;22.97;11.73;;;5.20;99.90;;;;;;5003530;28;20196;-63
2022/01/14 12:04:01;;;;;;;29.07;11.23;;;5.20;99.90;;;;;;4995705;28;20192;-64
2022/01/14 12:06:50;;;;;;;23.10;10.73;;;5.40;99.90;;;;;;4993827;28;20538;-65
2022/01/14 12:09:16;;;;;;;22.07;11.50;;;5.40;99.90;;;;;;4992675;28;20199;-67
2022/01/14 12:11:42;;;;;;;28.67;12.70;;;5.50;99.90;;;;;;4993684;28;20203;-61
2022/01/14 12:14:08;;;;;;;20.07;10.60;;;5.60;99.90;;;;;;4992981;28;20216;-62
2022/01/14 12:17:00;;;;;;;30.43;12.03;;;5.70;99.90;;;;;;4993372;28;20192;-62
2022/01/14 12:19:28;;;;;;;35.17;12.23;;;5.80;99.90;;;;;;4992741;28;20583;-66
2022/01/14 12:21:56;;;;;;;21.87;10.20;;;6.00;99.90;;;;;;4993109;28;20549;-63
2022/01/14 12:24:21;;;;;;;24.37;12.07;;;6.40;99.90;;;;;;4993627;28;20188;-60
2022/01/14 12:27:11;;;;;;;29.67;12.07;;;7.40;99.90;;;;;;4994081;28;20189;-63
2022/01/14 12:30:04;;;;;;;24.63;11.43;;;8.70;97.70;;;;;;4993681;28;20261;-59
2022/01/14 12:32:29;;;;;;;40.13;12.70;;;10.00;94.70;;;;;;4983513;28;20203;-64
2022/01/14 12:34:55;;;;;;;23.80;11.57;;;11.20;93.20;;;;;;5005253;28;20180;-67
2022/01/14 12:37:43;;;;;;;21.97;11.80;;;12.10;90.40;;;;;;5013354;28;20177;-66
2022/01/14 12:40:19;;;;;;;22.27;11.43;;;12.70;85.50;;;;;;5004423;28;20202;-65
2022/01/14 12:42:48;;;;;;;26.33;12.60;;;12.40;83.40;;;;;;5009342;28;20197;-65
2022/01/14 12:45:30;;;;;;;35.27;13.97;;;11.40;84.30;;;;;;4998418;28;20234;-66
2022/01/14 12:48:12;;;;;;;25.00;12.67;;;9.90;88.40;;;;;;5002324;28;20192;-64
2022/01/14 12:50:38;;;;;;;44.60;15.43;;;8.80;90.90;;;;;;5009869;28;20204;-65
2022/01/14 12:53:04;;;;;;;28.93;13.93;;;7.90;93.00;;;;;;5011596;28;20307;-65
2022/01/14 12:55:34;;;;;;;28.27;13.20;;;7.20;94.30;;;;;;5011841;28;20535;-66
2022/01/14 12:58:00;;;;;;;25.77;13.23;;;6.60;95.70;;;;;;5003158;28;20192;-66
2022/01/14 13:00:26;;;;;;;26.03;13.10;;;6.20;96.80;;;;;;5007241;28;20605;-65
2022/01/14 13:02:54;;;;;;;33.90;13.17;;;6.00;97.70;;;;;;5004421;28;20203;-65
2022/01/14 13:05:21;;;;;;;22.43;11.03;;;5.90;98.20;;;;;;5011296;28;20255;-65
2022/01/14 13:07:48;;;;;;;27.40;11.30;;;5.80;98.50;;;;;;5005493;28;20263;-70
2022/01/14 13:10:15;;;;;;;20.00;10.60;;;5.70;98.80;;;;;;5005402;28;20183;-70
2022/01/14 13:12:44;;;;;;;23.90;13.17;;;5.60;98.90;;;;;;4993944;28;20274;-67
2022/01/14 13:15:19;;;;;;;35.63;13.10;;;5.60;99.20;;;;;;4985577;28;20180;-69
2022/01/14 13:18:09;;;;;;;26.77;11.27;;;5.50;99.50;;;;;;5001694;28;20184;-62